x

Orange Beach - 44 Nm Se Of Mobile, Al (42012) Wave Buoy

6:50am - Sun 19th Feb 2017 All times are CST. -6 hours from GMT.

  • Sig Wave height 2.3ft
  • Swell Direction
  • Peak Period 6s
  • Average Period 5s
  • Wind
    7mph
  • Sea Temp 67°f
  • Air Temp 66°f
  • Sea Pressure 1017.7mb
  • Orange Beach - 44 Nm Se Of Mobile, Al
  • Orange Beach - 44 Nm Se Of Mobile, Al

More Historic Weather Station data

Upgrade to MSW Pro to gain access to the past 30 days of data for over 8000 Wavebouys and Weather Stations around the globe.

Join Pro

Comparision Forecast

View Surf forecast
   
Sun 02/19 6:50am 2.5ft 6s 5s 7
mph
1017.7mb 67f 66f
5:50am 2.5ft 6s 5s 2
mph
1016.7mb 67f 67f
4:50am 2.5ft 6s 5s 7
mph
1015.9mb 67f 67f
3:50am 2.5ft 6s 5s 7 9 mph 1015mb 67f 67f
2:50am 2.5ft 6s 5s 7 9 mph 1014.6mb 67f 67f
1:50am 3.5ft 6s 5s 7 9 mph 1014.9mb 67f 67f
12:50am 3.5ft 6s 5s 7 9 mph 1015.1mb 67f 68f
Sat 02/18 11:50pm 3.5ft 6s 5s 4
mph
1015.1mb 67f 68f
10:50pm 3ft 6s 5s  -  mph 1015.4mb 67f 67f
9:50pm 3.5ft 6s 5s 2
mph
1015.5mb 67f 67f
8:50pm 3ft 6s 5s 2
mph
1015.5mb 68f 67f
7:50pm 3ft 6s 5s 2
mph
1014.8mb 68f 68f
6:50pm 3ft 6s 5s 2
mph
1014mb 69f 68f
5:50pm 3ft 6s 5s 2 4 mph 1013.4mb 69f 68f
4:50pm 3ft 6s 5s 2 4 mph 1012.9mb 69f 69f
3:50pm 3ft 6s 5s 2
mph
1012.5mb 69f 69f
2:50pm 3.5ft 5s 5s 2 4 mph 1012.4mb 69f 68f
1:50pm 3ft 5s 4s 7
mph
1012.5mb 68f 67f
12:50pm 2.5ft 5s 4s 9 13 mph 1012.7mb 68f 66f
11:50am 3.5ft 5s 4s 9
mph
1013.5mb 68f 67f
10:50am 3.5ft 5s 4s 9 11 mph 1014mb 68f 67f
9:50am 3.5ft 5s 4s 13 16 mph 1014mb 67f 66f
8:50am 3.5ft 5s 4s 13 18 mph 1013.7mb 67f 66f
7:50am 3.5ft 4s 4s 16 18 mph 1013.3mb 67f 65f
6:50am 3.5ft 5s 4s 18 20 mph 1012.4mb 67f 65f
5:50am 3ft 5s 4s 20 25 mph 1010.3mb 67f 65f
4:50am 1.6ft 4s 4s 34 40 mph 1007.9mb 67f 63f
3:50am 2ft 4s 4s 9 11 mph 1013.6mb 67f 63f
2:50am 2.5ft 5s 4s 9 11 mph 1014.8mb 67f 61f
1:50am 2.5ft 5s 4s 18 20 mph 1015.2mb 67f 60f
12:50am 2.5ft 4s 4s 11 13 mph 1015.2mb 67f 63f
Fri 02/17 11:50pm 2.5ft 4s 4s 18 25 mph 1015.7mb 67f 64f
10:50pm 2.5ft 3s 3s 20 27 mph 1014.9mb 67f 65f
9:50pm 1.6ft 3s 3s 18 22 mph 1015.1mb 67f 65f
8:50pm 1.3ft 3s 3s 16 20 mph 1015.9mb 67f 65f
7:50pm 1ft 2s 3s 16 20 mph 1016mb 67f 65f
6:50pm 0.3ft  -  5s 13 16 mph 1015.5mb 67f 64f
5:50pm 0.7ft  -  4s 7 9 mph 1016.4mb 67f 64f
4:50pm 0.7ft  -  5s 2 4 mph 1016.8mb 67f 64f
3:50pm 0.3ft  -  5s 2 4 mph 1017.1mb 67f 63f
2:50pm 0.7ft  -  5s 4 7 mph 1017.3mb 67f 63f
1:50pm 0.7ft  -  5s 7 11 mph 1018.2mb 67f 63f
12:50pm 0.7ft  -  5s 4 7 mph 1018.4mb 66f 63f
11:50am 0.7ft  -  4s 4
mph
1019.8mb 66f 61f
10:50am 0.7ft  -  5s 7 9 mph 1019.9mb 66f 60f
9:50am 0.7ft  -  5s 4 7 mph 1020.3mb 66f 60f
8:50am 0.7ft  -  4s 4 7 mph 1020mb 65f 60f
7:50am 0.7ft  -  5s 2 4 mph 1019.9mb 65f 60f
6:50am 0.7ft  -  4s 2 4 mph 1019.5mb 66f 59f
5:50am 0.7ft  -  4s 4
mph
1018.9mb 66f 58f
4:50am 0.7ft  -  5s 4 7 mph 1018.5mb 66f 59f
3:50am 0.7ft  -  5s 7 9 mph 1018.3mb 66f 59f
2:50am 0.7ft  -  5s 2 4 mph 1018.3mb 66f 60f
1:50am 0.7ft  -  5s 4
mph
1018.3mb 66f 60f
12:50am 0.7ft  -  5s 9 11 mph 1019.2mb 67f 60f
Thu 02/16 11:50pm 0.7ft  -  5s 7 9 mph 1018.8mb 67f 60f
10:50pm 0.7ft  -  5s 7 9 mph 1018.9mb 67f 60f
9:50pm 0.7ft  -  5s 7 9 mph 1019.3mb 67f 60f
8:50pm 0.7ft  -  4s 7 9 mph 1019.3mb 67f 59f
7:50pm 0.7ft  -  5s 4 7 mph 1019mb 67f 59f
6:50pm 0.7ft  -  4s 7 11 mph 1018.7mb 67f 58f
5:50pm 0.7ft  -  4s 9 11 mph 1018.5mb 67f 58f
4:50pm 0.7ft  -  5s 9 11 mph 1018.3mb 68f 58f
3:50pm 1ft 6s 4s 9 11 mph 1018.5mb 68f 57f
2:50pm 1ft 6s 4s 7 9 mph 1018.6mb 68f 56f
1:50pm 1ft 7s 4s  -  2 mph 1018.8mb 68f 56f
12:50pm 1.3ft 7s 4s 4 7 mph 1019.6mb 67f 54f
11:50am 1.3ft 4s 4s 4 9 mph 1020.4mb 67f 53f
10:50am 1.3ft 8s 4s 7 9 mph 1020.7mb 67f 53f
9:50am 1.6ft 3s 3s 9 11 mph 1020.7mb 66f 52f
8:50am 2ft 3s 3s 11 13 mph 1020.2mb 66f 51f
7:50am 2.5ft 3s 3s 13 18 mph 1019.3mb 66f 50f
6:50am 2.5ft 4s 3s 16 20 mph 1018.7mb 67f 51f
5:50am 2.5ft 4s 4s 18 22 mph 1018.2mb 67f 51f
4:50am 3ft 4s 4s 18 22 mph 1017.9mb 67f 52f
3:50am 3.5ft 3s 4s 18 22 mph 1017.7mb 67f 53f
2:50am 3ft 4s 4s 20 27 mph 1017.2mb 67f 54f
1:50am 3ft 4s 4s 20 25 mph 1017.2mb 67f 56f
12:50am 3ft 4s 4s 22 27 mph 1016.9mb 67f 57f
Wed 02/15 11:50pm 3ft 7s 4s 22 27 mph 1015.7mb 67f 58f
10:50pm 3ft 7s 4s 20 25 mph 1015.6mb 67f 60f
9:50pm 3ft 7s 4s 18 22 mph 1015.3mb 67f 59f
8:50pm 3ft 7s 5s 16 20 mph 1014.6mb 67f 58f
7:50pm 3.5ft 7s 5s 16 20 mph 1014.2mb 67f 57f
6:50pm 3.5ft 7s 5s 13 18 mph 1013.8mb 67f 56f
5:50pm 3.5ft 7s 5s 16 22 mph 1013mb 67f 55f
4:50pm 4ft 7s 5s 18 25 mph 1012.1mb 67f 55f
3:50pm 4ft 7s 5s 18 22 mph 1011.1mb 67f 56f
2:50pm 4.5ft 7s 5s 18 25 mph 1010.6mb 67f 57f